Scroll down
FLIGHT INFORMATION
Ryanair

RYR1649

At Arrival Gate

LIRA
 EINN
DATE: 2020-12-04
GATE: 
GATE DEPARTURE: 06:22
TAKEOFF: 06:31
DATE: 2020-12-04
GATE:  -
LANDING: 09:37
GATE ARRIVAL: 09:45
FLIGHT DATA
Crew: 
Speed: 
835 kph
Altitude: 
37,418 ft
Stage Length: 
2,013.9 km
Block Time: 
3.3 hrs
Flight Time: 
3.1 hrs
Fuel Used: 
7,959 kg
Cleared Route: LIRA GILIO ELB DOBIM GIRAG AKUTI BABED PIGOS BARSO OKTET GIPNO BULOL IDAVO ARDOL BAGBI SIZZA CHABY LAULY BRY CLM UTELA KOPOR SOMIL NITAR VESAN RATUK SOVAT SANDY BIG GOXUL LINDY NORRY CPT KENET GAVGO DEZZU DIKAS LUFTU STU SLANY WTDNB TIPUR EINN
TRACK DATA
50,000 ft 1,000 kts
AIRCRAFT INFO AND CUMULATIVE STATS
Aircraft Type: 
B738BW
Registration: 
SELCAL: 
MSN/LN: 
44741 / 5891
Operator: 
Total Flights: 
4
Total Block Time: 
7.1 hrs
Total Flight Time: 
6.2 hrs
Total Fuel Used: 
16,972 kg
DATALINK LOG | Newest first | Current as of: 2021-08-02 19:13:30
LABEL SEQUENCE CONTENT Dn/Up
QD542609:45 6.4▼ Dn
QC472209:37▼ Dn
2U2020EINN 030930Z 32002KT 9999 SCT012 FEW018CB BKN030 BKN040 03/02 Q0988 NOSIG▲ Up
2S3006EINN▼ Dn
5U4859EINN 031243Z 29010KT 9999 -SHRA FEW018CB 04/02 Q0990▲ Up
5S5736EINN▼ Dn
UM205853CLEARED TO FL 360▲ Up
DM65843REQUEST FL 360 DUE TO A/C PERF▼ Dn
QB402706:31▼ Dn
QA322106:22 24▼ Dn
A31406NO MATCHING FLIGHT DATA AVAILABLE FROM ANSP▲ Up
B31406LIRA EINN G ▼ Dn
Q01305[LINK ACK]▲ Up
Q01305[LINK TEST]▼ Dn


AIRCRAFT HISTORY
FLIGHT DATE FLIGHT NO. ORIGIN DESTINATION CLEARED ROUTE BLOCK TIME FLIGHT TIME FUEL USED PILOT
2020-12-12RYR4324EGNT LFPO EGNT GIRLI NATEB AGPED UNTAL BAVDO ERKIT USEKA ODNEK MITSO RIMTO BATLI POL LISTO HON KIDLI DIGUT CPT VAPID GWC SITET ETRAT DVL LGL BOBSA LFPO1.8 hrs1.5 hrs9,183 lbMike Dryden
2020-12-08RYR5398EIDW EGNT EIDW LIFFY RULAV ABGEP ALAVA MALUD WAL ASMIM BARTN SONEX DENBY POL EGNT1 hrs0.9 hrs6,096 lbMike Dryden
2020-12-08RYR8314EINN EIDW EINN TOMTO TORLU OSGAR EIDW1 hrs0.7 hrs4,589 lbMike Dryden
2020-12-04RYR1649LIRA EINN LIRA GILIO ELB DOBIM GIRAG AKUTI BABED PIGOS BARSO OKTET GIPNO BULOL IDAVO ARDOL BAGBI SIZZA CHABY LAULY BRY CLM UTELA KOPOR SOMIL NITAR VESAN RATUK SOVAT SANDY BIG GOXUL LINDY NORRY CPT KENET GAVGO DEZZU DIKAS LUFTU STU SLANY WTDNB TIPUR EINN3.3 hrs3.1 hrs17,547 lbMike Dryden